Weather observations for the past three days for
Elk City Regional Business Airport
Metric (Imperial)
Date Time (cdt) Wind (kph) Vis. (km) Weather Sky Cond. Temperature (ºC) Relative Humidity Wind Chill (°C) Heat Index (°C) Pressure Precipitation (cm)
Air Dwpt 6 hour altimeter (cm) sea level (mb) 1 hr 3 hr 6 hr
Max. Min.
05 20:15 NE 28 G 43 16.09 Mostly Cloudy BKN035 10.5 6.1 74% 75.74 0.0
05 19:55 NE 31 G 37 16.09 Overcast OVC034 11.1 5.8 70% 75.74 0.0
05 19:35 NE 24 16.09 Overcast OVC033 11.4 5.8 69% 75.77 0.0
05 19:15 NE 26 16.09 Overcast OVC032 11.9 5.7 66% 75.79 0.0
05 18:55 NE 20 16.09 Overcast OVC031 12.2 6.3 15.1 12.2 67% 75.79 0.0
05 18:35 NE 22 16.09 Overcast OVC031 12.5 6.8 68% 75.79 0.0
05 18:15 NE 28 16.09 Overcast OVC032 12.5 6.6 68% 75.77 0.0
05 17:55 NE 24 G 37 16.09 Overcast OVC035 13.5 6.6 63% 75.74 0.0
05 17:35 NE 31 G 43 16.09 Overcast OVC034 13.6 6.6 63% 75.69 0.0
05 17:15 NE 22 16.09 Overcast OVC032 13.7 6.8 63% 75.72 0.0
05 16:55 NE 24 16.09 Overcast OVC034 13.9 7.1 64% 75.72 0.0
05 16:35 NE 26 16.09 Overcast OVC034 14.2 7.3 63% 75.74 0.0
05 16:15 NE 19 16.09 Overcast OVC032 14 7.5 65% 75.74 0.0
05 15:55 NE 30 G 37 16.09 Overcast OVC030 14.1 7.5 65% 75.72 0.0
05 15:35 NE 24 G 46 16.09 Overcast OVC029 14.3 7.6 64% 75.72 0.0
05 15:15 NE 31 G 39 16.09 Overcast OVC028 14.8 8.1 64% 75.69 0.0
05 14:55 NE 33 G 46 16.09 Overcast and Breezy OVC025 14 8 67% 75.69 0.0
05 14:35 N 33 G 43 16.09 Overcast and Breezy OVC024 13.5 8.1 70% 75.69 0.0
05 14:15 NE 28 G 43 16.09 Overcast OVC024 13.4 8.2 71% 75.69 0.0
05 13:55 NE 31 G 43 16.09 Overcast OVC023 13.8 8.1 69% 75.67 0.0
05 13:35 NE 30 16.09 Overcast OVC023 13.3 8.3 72% 75.69 0.0
05 13:15 NE 35 G 43 16.09 Overcast and Breezy OVC022 12.8 8.2 74% 75.72 0.0
05 12:55 N 30 G 39 16.09 Overcast OVC021 13.1 8.5 17.5 12.6 74% 75.72 0.0
05 12:35 NE 35 G 44 16.09 Overcast and Breezy OVC021 13 8.5 74% 75.72 0.0
05 12:15 N 30 G 50 16.09 Overcast OVC020 12.8 8.5 75% 75.69 0.0
05 11:55 N 39 G 48 16.09 Overcast and Breezy OVC023 13.2 8.2 72% 75.67 0.0
05 11:35 NE 33 G 44 16.09 Overcast and Breezy OVC023 13.5 8.2 71% 75.64 0.0
05 11:15 NE 37 G 50 16.09 Overcast and Breezy OVC025 13.7 7.7 67% 75.59 0.0
05 10:55 NE 35 G 44 16.09 Overcast and Breezy OVC024 14 7.7 66% 75.57 0.0
05 10:35 N 30 G 44 16.09 Overcast OVC021 14 7.4 65% 75.54 0.0
05 10:15 N 35 G 43 16.09 Overcast and Breezy OVC020 14.1 7.8 66% 75.51 0.0
05 09:55 N 35 G 46 16.09 Overcast and Breezy OVC019 13.9 7.9 67% 75.49 0.0
05 09:35 N 35 G 48 16.09 Overcast and Breezy OVC019 13.5 7.9 69% 75.44 0.0
05 09:15 N 33 G 44 16.09 Overcast and Breezy OVC019 13.8 8.4 70% 75.44 0.0
05 08:55 N 37 G 54 14.48 Overcast and Breezy OVC018 13.7 9.4 75% 75.39 0.0
05 08:35 N 41 G 54 16.09 Overcast and Breezy OVC017 13.9 9.9 77% 75.34 0.0
05 08:15 N 37 G 50 16.09 Overcast and Breezy OVC017 14.4 11.4 82% 75.31 0.0
05 07:55 N 31 16.09 Overcast OVC016 15.4 12.9 85% 75.29 0.0
05 07:35 N 37 G 48 16.09 Overcast and Breezy OVC015 16.1 13.6 85% 75.26 0.0
05 07:15 N 31 G 48 14.48 Overcast BKN010 OVC015 17.2 15.3 89% 75.21 0.0
05 06:55 N 28 16.09 Partly Cloudy SCT010 16.6 13.7 22.8 16.1 83% 75.16 0.0
05 06:35 N 26 16.09 Fair CLR 16.2 10.3 68% 75.13 0.0
05 06:15 N 20 16.09 A Few Clouds FEW210 17.1 3.7 41% 75.11 0.0
05 05:55 N 6 16.09 Fair CLR 18.3 -0.7 28% 75.03 0.0
05 05:35 N 7 16.09 Fair CLR 18.5 -0.6 28% 75.01 0.0
05 05:15 W 11 16.09 Fair CLR 20.1 -1 24% 74.98 0.0
05 04:55 W 17 16.09 Fair CLR 21.8 -0.8 22% 74.93 0.0
05 04:35 W 17 16.09 Fair CLR 22.5 -0.9 21% 74.9 0.0
05 04:15 SW 19 16.09 Fair CLR 22.5 -0.8 21% 74.9 0.0
05 03:55 SW 19 16.09 Fair CLR 22.5 -0.3 22% 74.9 0.0
05 03:35 SW 15 16.09 Fair CLR 21.9 0.1 24% 74.9 0.0
05 03:15 SW 13 16.09 Fair CLR 20.7 1.2 27% 74.93 0.0
05 02:55 S 13 16.09 Partly Cloudy SCT250 18.1 3.9 39% 74.93 0.0
05 02:35 S 13 16.09 Partly Cloudy SCT240 18.2 4.1 39% 74.98 0.0
05 02:15 S 17 16.09 Partly Cloudy SCT250 19.1 3.5 36% 74.98 0.0
05 01:55 S 15 14.48 Light Rain SCT250 20 3.7 34% 74.98 0.0
05 01:35 S 15 16.09 Partly Cloudy SCT250 21 3.5 32% 75.01 0.0
05 01:15 S 17 16.09 A Few Clouds FEW250 21.3 3.5 31% 75.01 0.0
05 00:55 S 17 16.09 Mostly Cloudy BKN250 21.6 4.1 32.3 21.6 32% 75.03 0.0
05 00:35 SW 19 16.09 Overcast OVC250 23 4.1 29% 75.03 0.0
05 00:15 SW 19 16.09 Mostly Cloudy BKN260 23.5 5.2 31% 75.01 0.0
04 23:55 SW 22 16.09 Partly Cloudy SCT250 24.5 8.6 36% 25 75.03 0.0
04 23:35 SW 22 16.09 Mostly Cloudy BKN250 25 10.4 40% 26 75.03 0.0
04 23:15 S 20 16.09 A Few Clouds FEW140 25.4 9.2 36% 26 75.03 0.0
04 22:55 S 24 16.09 Mostly Cloudy BKN140 27 7.9 30% 26 75.03 0.0
04 22:35 S 28 G 37 16.09 Mostly Cloudy BKN140 27.3 8 30% 27 75.03 0.0
04 22:15 S 19 16.09 A Few Clouds FEW150 26.7 6.7 28% 26 75.03 0.0
04 21:55 SW 17 16.09 Mostly Cloudy BKN140 BKN160 27.8 4 22% 27 75.01 0.0
04 21:35 SW 20 16.09 Mostly Cloudy BKN140 28.4 1 17% 27 75.01 0.0
04 21:15 SW 20 12.87 Partly Cloudy SCT150 28.6 0.5 16% 27 75.01 0.0
04 20:55 SW 17 12.87 A Few Clouds FEW140 28.7 2 18% 27 74.98 0.0
04 20:35 SW 19 11.27 Partly Cloudy SCT140 29.6 2 17% 28 74.96 0.0
04 20:15 SW 20 G 46 11.27 Mostly Cloudy BKN130 30.7 1.1 15% 29 74.96 0.0
04 19:55 SW 22 11.27 A Few Clouds FEW130 31.1 1.4 15% 29 74.96 0.0
04 19:35 SW 30 G 43 8.05 A Few Clouds with Haze FEW130 31.6 1.9 15% 29 74.96 0.0
04 19:15 SW 24 G 33 8.05 A Few Clouds with Haze FEW140 31.9 1.1 14% 30 74.98 0.0
04 18:55 W 20 6.44 Partly Cloudy with Haze SCT140 32.4 0.3 33.2 25 13% 30 74.98 0.0
04 18:35 SW 17 11.27 Partly Cloudy SCT140 32.5 0.9 13% 30 74.98 0.0
04 18:15 W 31 G 41 12.87 A Few Clouds FEW140 32.8 -0.6 12% 30 75.01 0.0
04 17:55 SW 30 G 46 12.87 Mostly Cloudy BKN140 32.9 -0.3 12% 31 75.01 0.0
04 17:35 SW 26 G 35 11.27 Mostly Cloudy BKN140 32.8 1.2 13% 30 75.01 0.0
04 17:15 W 22 G 33 12.87 A Few Clouds FEW140 33 0.9 13% 31 75.03 0.0
04 16:55 W 20 G 31 12.87 Partly Cloudy SCT140 33.2 1.7 13% 31 75.06 0.0
04 16:35 W 22 12.87 Mostly Cloudy BKN140 BKN160 33.1 0.1 12% 31 75.06 0.0
04 16:15 SW 7 G 26 12.87 Mostly Cloudy BKN140 32.4 2.1 14% 30 75.08 0.0
04 15:55 S 20 12.87 Partly Cloudy SCT150 SCT280 32.4 3.4 16% 30 75.13 0.0
04 15:35 S 22 12.87 A Few Clouds FEW310 32.8 4.9 17% 31 75.16 0.0
04 15:15 S 22 11.27 A Few Clouds FEW310 32.3 5.4 18% 30 75.18 0.0
04 14:55 SW 24 G 35 12.87 Partly Cloudy FEW290 SCT360 31.4 6.9 22% 30 75.23 0.0
04 14:35 S 22 12.87 Partly Cloudy FEW260 SCT290 SCT320 SCT350 31.1 7 22% 29 75.26 0.0
04 14:15 SW 24 12.87 Partly Cloudy SCT300 SCT320 SCT350 30.7 7.8 24% 29 75.29 0.0
04 13:55 SW 19 G 35 14.48 Partly Cloudy FEW290 SCT360 29.6 7.5 25% 28 75.34 0.0
04 13:35 SW 24 14.48 Partly Cloudy FEW280 SCT310 SCT370 29.4 8.6 27% 28 75.34 0.0
04 13:15 SW 24 12.87 Partly Cloudy FEW260 SCT280 SCT350 28.4 8.9 29% 27 75.36 0.0
04 12:55 S 30 14.48 Partly Cloudy SCT260 SCT340 27 9.4 27 13.9 33% 27 75.39 0.0
04 12:35 SW 28 14.48 Partly Cloudy FEW260 SCT300 SCT350 SCT380 26.6 9.3 34% 26 75.41 0.0
04 12:15 S 31 14.48 Partly Cloudy FEW290 SCT350 SCT370 25.8 9.9 37% 26 75.41 0.0
04 11:55 S 28 14.48 A Few Clouds FEW320 24.6 9.6 39% 25 75.44 0.0
04 11:35 S 26 14.48 Partly Cloudy FEW250 SCT370 24 10 41% 25 75.46 0.0
04 11:15 S 30 14.48 A Few Clouds FEW240 22.7 9.3 43% 75.46 0.0
04 10:55 S 30 14.48 Fair CLR 22.1 9.5 45% 75.46 0.0
04 10:35 SW 33 14.48 A Few Clouds and Breezy FEW350 21.5 9.1 45% 75.46 0.0
04 10:15 SW 31 14.48 Fair CLR 21.5 9.4 46% 75.46 0.0
04 09:55 SW 30 14.48 Fair CLR 20.1 9.1 49% 75.49 0.0
04 09:35 S 26 14.48 Fair CLR 19.4 9 51% 75.51 0.0
04 09:15 S 33 14.48 Fair and Breezy CLR 18.2 8.5 53% 75.51 0.0
04 08:55 S 26 14.48 Fair CLR 17.2 8.5 57% 75.51 0.0
04 08:35 S 22 14.48 Fair CLR 16.5 8.3 59% 75.51 0.0
04 08:15 S 24 14.48 Fair CLR 15.8 8 60% 75.51 0.0
04 07:55 S 24 12.87 Fair CLR 15.5 7.8 60% 75.51 0.0
04 07:35 S 20 12.87 Fair CLR 14.9 7.9 63% 75.51 0.0
04 07:15 S 20 12.87 Fair CLR 14.4 7.7 64% 75.51 0.0
04 06:55 S 22 12.87 Fair CLR 13.8 7.5 18.7 13.5 66% 75.51 0.0
04 06:35 S 24 14.48 Fair CLR 13.8 7.3 65% 75.51 0.0
04 06:15 S 24 14.48 Fair CLR 14 7.2 64% 75.51 0.0
04 05:55 S 22 14.48 Fair CLR 13.8 7.2 65% 75.54 0.0
04 05:35 S 20 16.09 Fair CLR 14.1 7.2 63% 75.54 0.0
04 05:15 S 19 14.48 Fair CLR 13.9 7.4 65% 75.59 0.0
04 04:55 S 20 14.48 Fair CLR 14.2 7.2 63% 75.62 0.0
04 04:35 S 19 16.09 Fair CLR 13.6 7.3 66% 75.62 0.0
04 04:15 S 17 14.48 Fair CLR 13.7 7 64% 75.62 0.0
04 03:55 S 19 14.48 Fair CLR 14 6.8 62% 75.62 0.0
04 03:35 S 17 14.48 Fair CLR 14.2 6.5 60% 75.64 0.0
04 03:15 S 17 16.09 Fair CLR 14.8 6.2 57% 75.67 0.0
04 02:55 S 17 14.48 Fair CLR 15 6.1 56% 75.67 0.0
04 02:35 S 19 14.48 Fair CLR 15.3 6 54% 75.72 0.0
04 02:15 S 17 14.48 Fair CLR 16.5 5.7 49% 75.74 0.0
04 01:55 S 22 14.48 Fair CLR 17.4 5.6 46% 75.74 0.0
04 01:35 S 22 14.48 Fair CLR 18 5.5 44% 75.77 0.0
04 01:15 S 26 14.48 Fair CLR 18.4 5.4 43% 75.77 0.0
04 00:55 S 28 14.48 Fair CLR 18.8 5.3 27.1 18.8 41% 75.79 0.0
04 00:35 S 28 14.48 Fair CLR 19.1 5.3 41% 75.79 0.0
04 00:15 S 30 14.48 Fair CLR 19.2 5.1 40% 75.79 0.0
03 23:55 S 26 14.48 Fair CLR 19.5 4.8 38% 75.82 0.0
03 23:35 S 24 14.48 Fair CLR 19.5 4.8 38% 75.82 0.0
03 23:15 S 22 14.48 Fair CLR 19.9 4.4 36% 75.82 0.0
03 22:55 S 19 14.48 Fair CLR 20.4 4.1 34% 75.84 0.0
03 22:35 S 22 14.48 Fair CLR 20.9 4 33% 75.84 0.0
03 22:15 S 22 14.48 Fair CLR 20.9 3.6 32% 75.82 0.0
03 21:55 S 15 14.48 Fair CLR 20.3 2.2 30% 75.82 0.0
03 21:35 S 19 12.87 Fair CLR 21.4 2.2 28% 75.82 0.0
03 21:15 S 20 14.48 Fair CLR 22.1 2 27% 75.79 0.0
03 20:55 S 20 11.27 Fair CLR 23.1 1.9 25% 75.79 0.0
03 20:35 S 24 11.27 Fair CLR 23.8 1.9 24% 75.79 0.0
03 20:15 S 22 9.66 Fair with Haze CLR 24.4 1.6 22% 25 75.79 0.0
03 19:55 S 28 G 44 11.27 Fair CLR 25.5 1.3 21% 25 75.79 0.0
03 19:35 S 28 G 39 12.87 Fair CLR 26.2 1.8 20% 26 75.79 0.0
03 19:15 S 31 12.87 Fair CLR 26.9 1.3 19% 26 75.79 0.0
03 18:55 S 35 G 43 12.87 Fair and Breezy CLR 26.6 1.1 28.1 26 19% 26 75.82 0.0
03 18:35 S 30 G 43 14.48 Fair CLR 27.3 1.6 19% 26 75.82 0.0
03 18:15 SW 39 G 48 12.87 Fair and Breezy CLR 27.7 1.4 18% 26 75.82 0.0
03 17:55 SW 26 12.87 Fair CLR 27.2 1.1 18% 26 75.87 0.0
03 17:35 SW 30 G 41 14.48 Fair CLR 27.4 1.6 19% 26 75.87 0.0
03 17:15 SW 26 G 48 14.48 Fair CLR 27.5 1.7 19% 26 75.9 0.0
03 16:55 SW 30 G 43 14.48 Fair CLR 27.9 1 17% 27 75.92 0.0
03 16:35 S 39 G 48 14.48 Fair and Breezy CLR 28 1.3 18% 27 75.95 0.0
03 16:15 S 37 G 50 14.48 Fair and Breezy CLR 27.7 1.1 18% 26 75.97 0.0
03 15:55 SW 31 G 50 12.87 Fair CLR 27.8 1.6 18% 27 76.02 0.0
03 15:35 SW 39 G 50 14.48 Fair and Breezy CLR 27.6 1.5 18% 26 76.02 0.0
03 15:15 SW 37 G 50 12.87 Fair and Breezy CLR 27.5 0.9 18% 26 76.05 0.0
03 14:55 SW 31 G 48 14.48 Fair CLR 27.7 2.1 19% 27 76.1 0.0
03 13:55 SW 26 G 41 12.87 Fair CLR 27.2 2.1 20% 26 76.15 0.0
03 13:35 SW 33 G 48 14.48 A Few Clouds and Breezy FEW360 26.5 1 19% 26 76.17 0.0
03 13:15 W 28 G 46 14.48 Fair CLR 26.4 1.7 20% 26 76.23 0.0
03 12:55 S 30 G 39 14.48 Fair CLR 25.8 2.4 26.1 10.6 22% 25 76.28 0.0
03 12:35 SW 31 G 44 14.48 Fair CLR 25.9 1.8 21% 25 76.3 0.0
03 12:15 SW 31 G 43 14.48 Fair CLR 25.6 1 20% 25 76.3 0.0
03 11:55 SW 24 G 41 14.48 Fair CLR 25.3 2.2 22% 25 76.33 0.0
03 11:35 SW 22 G 33 14.48 Fair CLR 24.8 4.4 27% 25 76.35 0.0
03 11:15 SW 26 14.48 Fair CLR 24 4.8 29% 25 76.35 0.0
03 10:55 SW 24 14.48 Fair CLR 22.9 5.5 32% 76.35 0.0
03 10:35 SW 26 14.48 Fair CLR 21.9 5.2 34% 76.38 0.0
03 10:15 W 20 14.48 Fair CLR 21.5 5.2 35% 76.38 0.0
03 09:55 W 19 14.48 Fair CLR 19.8 4.9 38% 76.38 0.0
03 09:35 SW 15 14.48 Fair CLR 19.4 5.1 39% 76.38 0.0
03 09:15 W 11 14.48 Fair CLR 19 4.9 40% 76.38 0.0
03 08:55 SW 9 16.09 Fair CLR 17.6 4.7 43% 76.35 0.0
03 08:35 SW 11 16.09 Fair CLR 16.9 4.7 45% 76.35 0.0
03 08:15 W 11 14.48 Fair CLR 16 4.8 48% 76.33 0.0
03 07:55 W 9 14.48 Fair CLR 13.4 3.9 53% 76.3 0.0
03 07:35 W 9 14.48 Fair CLR 12.1 2.9 54% 76.3 0.0
03 07:15 W 9 12.87 Fair CLR 10.9 1.6 53% 76.3 0.0
03 06:55 W 7 16.09 Fair CLR 9.6 3.4 13.2 8.2 66% 9 76.3 0.0
03 06:35 Calm 14.48 Fair CLR 9.2 4.2 71% 76.3 0.0
03 06:15 SW 7 16.09 Fair CLR 9.5 4.6 72% 9 76.28 0.0
03 05:55 S 7 16.09 Fair CLR 9.7 5.4 75% 9 76.28 0.0
03 05:35 S 9 16.09 Fair CLR 8.9 5.4 79% 8 76.28 0.0
03 05:15 S 11 16.09 Fair CLR 9 5.7 80% 8 76.28 0.0
03 04:55 S 9 16.09 Fair CLR 9.2 5.8 80% 8 76.28 0.0
03 04:35 S 11 16.09 Fair CLR 9.4 5.9 79% 8 76.3 0.0
03 04:15 SW 13 16.09 Fair CLR 9.6 6 78% 8 76.3 0.0
03 03:55 S 11 16.09 Fair CLR 9.8 6.2 79% 8 76.3 0.0
03 03:35 S 7 14.48 Fair CLR 9.8 7.1 83% 9 76.3 0.0
03 03:15 SW 6 14.48 Fair CLR 9.1 6.7 85% 76.3 0.0
03 02:55 S 7 16.09 Fair CLR 11 6.4 74% 76.33 0.0
03 02:35 SE 6 16.09 Fair CLR 10.5 6.3 75% 76.33 0.0
03 02:15 SE 6 14.48 Fair CLR 11.6 6 69% 76.35 0.0
03 01:55 Calm 14.48 Fair CLR 11.4 5.8 69% 76.38 0.0
03 01:35 Calm 16.09 Fair CLR 11.9 5.5 65% 76.38 0.0
03 01:15 Calm 14.48 Fair CLR 13.2 5.3 59% 76.4 0.0
03 00:55 E 6 14.48 Fair CLR 12.9 5.3 23.5 11.8 60% 76.4 0.0
03 00:35 E 6 14.48 Fair CLR 12.2 5.5 64% 76.4 0.0
03 00:15 E 7 16.09 Fair CLR 13 5.6 61% 76.4 0.0
02 23:55 E 9 14.48 Fair CLR 12.7 5.6 62% 76.4 0.0
02 23:35 E 7 14.48 Fair CLR 13.3 5.4 59% 76.4 0.0
02 23:15 E 9 14.48 Fair CLR 14.8 4.9 52% 76.4 0.0
02 22:55 E 9 16.09 Fair CLR 15.5 4.4 48% 76.4 0.0
02 22:35 E 11 16.09 Fair CLR 14.6 4.2 50% 76.4 0.0
02 22:15 E 13 16.09 Fair CLR 16.1 3.8 44% 76.38 0.0
02 21:55 E 9 16.09 Fair CLR 16.8 3.2 40% 76.38 0.0
02 21:35 E 7 16.09 Fair CLR 16.7 3.3 41% 76.35 0.0
02 21:15 E 7 14.48 Fair CLR 17.8 3 37% 76.33 0.0
02 20:55 E 11 11.27 Fair CLR 17.4 3 38% 76.3 0.0
02 20:35 E 9 11.27 Fair CLR 18.3 2.9 36% 76.3 0.0
Date Time (cdt) Wind (kph) Vis. (km) Weather Sky Cond. Air Dwpt Max. Min. Relative Humidity Wind Chill (°C) Heat Index (°C) altimeter (cm) sea level (mb) 1 hr 3 hr 6 hr
6 hour
Temperature (ºC) Pressure Precipitation (cm)